createdAt,value
2019-04-26T00:02:48.793Z,10.70
2019-04-26T00:05:18.518Z,10.70
2019-04-26T00:11:37.626Z,10.70
2019-04-26T00:14:49.761Z,10.60
2019-04-26T00:17:31.039Z,10.60
2019-04-26T00:20:48.970Z,10.60
2019-04-26T00:23:19.816Z,10.60
2019-04-26T00:25:54.074Z,10.60
2019-04-26T00:28:54.960Z,10.50
2019-04-26T00:35:15.705Z,10.50
2019-04-26T00:37:46.370Z,10.50
2019-04-26T00:40:23.323Z,10.50
2019-04-26T00:42:57.595Z,10.50
2019-04-26T00:45:31.983Z,10.60
2019-04-26T00:48:08.810Z,10.60
2019-04-26T00:50:38.235Z,10.60
2019-04-26T00:53:09.493Z,10.60
2019-04-26T00:55:50.496Z,10.60
2019-04-26T01:10:27.450Z,10.70
2019-04-26T01:12:59.504Z,10.70
2019-04-26T01:15:31.966Z,10.70
2019-04-26T01:18:10.072Z,10.70
2019-04-26T01:20:44.140Z,10.70
2019-04-26T01:23:20.936Z,10.70
2019-04-26T01:26:46.001Z,10.80
2019-04-26T01:29:45.622Z,10.80
2019-04-26T01:32:22.000Z,10.70
2019-04-26T01:34:54.010Z,10.70
2019-04-26T01:38:23.595Z,10.80
2019-04-26T01:40:55.634Z,10.80
2019-04-26T01:43:46.984Z,10.70
2019-04-26T01:46:28.984Z,10.70
2019-04-26T01:49:05.692Z,10.70
2019-04-26T01:51:56.596Z,10.70
2019-04-26T01:54:31.908Z,10.70
2019-04-26T01:57:05.396Z,10.70
2019-04-26T01:59:40.891Z,10.70
2019-04-26T02:02:32.023Z,10.70
2019-04-26T02:05:06.433Z,10.70
2019-04-26T02:08:07.442Z,10.70
2019-04-26T02:10:36.966Z,10.60
2019-04-26T02:13:13.899Z,10.70
2019-04-26T02:15:43.454Z,10.70
2019-04-26T02:18:14.959Z,10.60
2019-04-26T02:21:31.994Z,10.70
2019-04-26T02:24:30.140Z,10.60
2019-04-26T02:27:07.593Z,10.60
2019-04-26T02:29:38.021Z,10.60
2019-04-26T02:32:09.572Z,10.60
2019-04-26T02:34:40.185Z,10.60
2019-04-26T02:37:22.696Z,10.60
2019-04-26T02:39:59.131Z,10.60
2019-04-26T02:42:50.135Z,10.60
2019-04-26T02:46:01.926Z,10.60
2019-04-26T02:48:48.082Z,10.60
2019-04-26T02:51:22.509Z,10.60
2019-04-26T02:54:02.037Z,10.60
2019-04-26T02:56:41.568Z,10.60
2019-04-26T02:59:43.143Z,10.60
2019-04-26T03:02:24.794Z,10.60
2019-04-26T03:05:04.550Z,10.60
2019-04-26T03:07:59.708Z,10.60
2019-04-26T03:10:40.368Z,10.60
2019-04-26T03:13:31.986Z,10.60
2019-04-26T03:16:21.510Z,10.60
2019-04-26T03:19:06.097Z,10.50
2019-04-26T03:22:06.557Z,10.50
2019-04-26T03:25:03.959Z,10.40
2019-04-26T03:28:07.746Z,10.40
2019-04-26T03:30:52.057Z,10.40
2019-04-26T03:33:53.972Z,10.30
2019-04-26T03:36:37.406Z,10.30
2019-04-26T03:39:36.097Z,10.30
2019-04-26T03:42:24.333Z,10.20
2019-04-26T03:45:15.671Z,10.20
2019-04-26T03:48:06.473Z,10.20
2019-04-26T03:50:48.654Z,10.20
2019-04-26T03:53:40.441Z,10.10
2019-04-26T04:00:28.241Z,10.10
2019-04-26T04:03:43.491Z,10.10
2019-04-26T04:06:30.388Z,10.00
2019-04-26T04:09:08.330Z,9.90
2019-04-26T04:12:11.062Z,9.90
2019-04-26T04:14:44.376Z,9.90
2019-04-26T04:17:58.621Z,9.80
2019-04-26T04:25:30.199Z,9.70
2019-04-26T04:35:45.647Z,9.60
2019-04-26T04:42:21.515Z,9.60
2019-04-26T04:45:42.189Z,9.50
2019-04-26T04:55:16.332Z,9.50
2019-04-26T04:58:17.890Z,9.50
2019-04-26T05:01:48.265Z,9.50
2019-04-26T05:08:06.600Z,9.60
2019-04-26T05:11:00.700Z,9.60
2019-04-26T05:13:54.470Z,9.70
2019-04-26T05:20:01.553Z,9.70
2019-04-26T05:22:49.060Z,9.80
2019-04-26T05:29:56.149Z,9.90
2019-04-26T05:33:05.377Z,9.90
2019-04-26T05:36:24.301Z,10.00
2019-04-26T05:39:27.811Z,10.00
2019-04-26T05:42:48.251Z,10.00
2019-04-26T05:46:06.448Z,10.00
2019-04-26T05:49:31.422Z,10.00
2019-04-26T05:52:59.750Z,10.00
2019-04-26T06:00:01.157Z,10.10
2019-04-26T06:03:02.277Z,10.10
2019-04-26T06:06:19.553Z,10.10
2019-04-26T06:09:51.837Z,10.10
2019-04-26T06:12:58.766Z,10.00
2019-04-26T06:15:48.383Z,10.00
2019-04-26T06:18:51.789Z,10.10
2019-04-26T06:22:08.179Z,10.10
2019-04-26T06:25:36.958Z,10.10
2019-04-26T06:28:48.647Z,10.20
2019-04-26T06:32:00.757Z,10.30
2019-04-26T06:34:49.091Z,10.30
2019-04-26T06:37:42.827Z,10.40
2019-04-26T06:40:50.906Z,10.40
2019-04-26T06:43:29.849Z,10.50
2019-04-26T06:46:35.825Z,10.60
2019-04-26T06:49:26.061Z,10.60
2019-04-26T06:52:04.993Z,10.70
2019-04-26T06:55:35.265Z,10.70
2019-04-26T06:58:50.418Z,10.80
2019-04-26T07:01:36.652Z,10.90
2019-04-26T07:04:59.373Z,10.90
2019-04-26T07:07:45.747Z,11.10
2019-04-26T07:10:42.298Z,11.10
2019-04-26T07:13:39.194Z,11.20
2019-04-26T07:16:23.285Z,11.30
2019-04-26T07:19:59.614Z,11.40
2019-04-26T07:23:04.188Z,11.60
2019-04-26T07:26:08.044Z,11.80
2019-04-26T07:29:29.576Z,11.90
2019-04-26T07:32:51.052Z,11.90
2019-04-26T07:35:32.315Z,11.80
2019-04-26T07:38:52.310Z,11.80
2019-04-26T07:42:07.778Z,11.90
2019-04-26T07:49:37.118Z,12.30
2019-04-26T07:52:44.097Z,12.40
2019-04-26T08:00:02.767Z,12.40
2019-04-26T08:03:02.744Z,12.40
2019-04-26T08:05:42.537Z,12.40
2019-04-26T08:08:16.844Z,12.50
2019-04-26T08:11:13.545Z,12.60
2019-04-26T08:14:04.626Z,12.60
2019-04-26T08:17:01.764Z,12.80
2019-04-26T08:19:41.294Z,12.90
2019-04-26T08:22:28.333Z,13.00
2019-04-26T08:25:02.793Z,13.00
2019-04-26T08:27:34.575Z,13.10
2019-04-26T08:30:15.435Z,13.00
2019-04-26T08:32:55.167Z,13.20
2019-04-26T08:35:30.838Z,13.20
2019-04-26T08:38:07.961Z,13.30
2019-04-26T08:40:38.894Z,13.30
2019-04-26T08:43:20.247Z,13.50
2019-04-26T08:46:13.113Z,13.60
2019-04-26T08:48:58.158Z,13.60
2019-04-26T08:51:27.992Z,13.70
2019-04-26T08:54:08.355Z,13.80
2019-04-26T08:56:42.080Z,14.00
2019-04-26T08:59:36.125Z,14.10
2019-04-26T09:02:31.917Z,14.20
2019-04-26T09:05:24.922Z,14.20
2019-04-26T09:08:06.587Z,14.10
2019-04-26T09:11:05.153Z,14.10
2019-04-26T09:14:02.368Z,14.10
2019-04-26T09:16:52.505Z,14.10
2019-04-26T09:19:54.700Z,14.20
2019-04-26T09:22:51.611Z,14.30
2019-04-26T09:25:39.941Z,14.40
2019-04-26T09:41:37.113Z,15.10
2019-04-26T09:44:15.817Z,15.20
2019-04-26T09:50:42.041Z,15.50
2019-04-26T09:56:24.322Z,15.70
2019-04-26T09:59:45.045Z,15.80
2019-04-26T10:05:55.824Z,15.70
2019-04-26T10:09:11.604Z,15.70
2019-04-26T10:16:04.322Z,16.10
2019-04-26T10:19:46.487Z,16.40
2019-04-26T10:22:16.352Z,16.60
2019-04-26T10:25:16.482Z,16.70
2019-04-26T10:28:50.562Z,16.50
2019-04-26T10:31:52.925Z,16.60
2019-04-26T10:34:53.542Z,16.30
2019-04-26T10:37:52.710Z,16.40
2019-04-26T10:41:08.548Z,16.60
2019-04-26T10:44:06.294Z,16.60
2019-04-26T10:46:54.848Z,16.80
2019-04-26T10:49:44.019Z,16.70
2019-04-26T10:52:54.066Z,16.60
2019-04-26T10:55:57.702Z,16.60
2019-04-26T10:58:45.590Z,16.90
2019-04-26T11:01:16.556Z,17.00
2019-04-26T11:03:58.276Z,17.20
2019-04-26T11:06:35.634Z,17.10
2019-04-26T11:09:11.928Z,17.00
2019-04-26T11:11:50.571Z,16.90
2019-04-26T11:14:24.220Z,16.80
2019-04-26T11:17:04.620Z,16.80
2019-04-26T11:19:35.508Z,16.50
2019-04-26T11:22:06.604Z,16.60
2019-04-26T11:24:42.277Z,16.70
2019-04-26T11:27:15.074Z,16.60
2019-04-26T11:29:53.676Z,16.40
2019-04-26T11:32:17.976Z,16.50
2019-04-26T11:34:54.521Z,16.80
2019-04-26T11:37:33.912Z,17.10
2019-04-26T11:40:03.629Z,17.30
2019-04-26T11:42:34.139Z,17.30
2019-04-26T11:45:06.406Z,17.20
2019-04-26T11:47:37.186Z,16.80
2019-04-26T11:50:12.425Z,16.60
2019-04-26T11:52:43.280Z,16.60
2019-04-26T11:55:14.874Z,16.90
2019-04-26T11:57:52.303Z,17.10
2019-04-26T12:00:30.687Z,17.10
2019-04-26T12:03:00.248Z,16.90
2019-04-26T12:05:48.607Z,16.80
2019-04-26T12:08:30.741Z,16.70
2019-04-26T12:11:00.945Z,16.80
2019-04-26T12:13:31.578Z,17.10
2019-04-26T12:16:02.889Z,17.30
2019-04-26T12:18:43.710Z,17.40
2019-04-26T12:21:12.671Z,17.60
2019-04-26T12:23:42.104Z,17.70
2019-04-26T12:26:11.751Z,17.70
2019-04-26T12:28:45.157Z,17.40
2019-04-26T12:31:20.848Z,17.50
2019-04-26T12:33:50.387Z,17.80
2019-04-26T12:36:21.139Z,18.00
2019-04-26T12:38:50.578Z,18.00
2019-04-26T12:41:39.515Z,17.90
2019-04-26T12:44:03.585Z,17.60
2019-04-26T12:46:54.601Z,17.50
2019-04-26T12:49:49.464Z,17.50
2019-04-26T12:52:22.815Z,17.60
2019-04-26T12:54:53.273Z,17.50
2019-04-26T12:57:29.214Z,17.40
2019-04-26T13:00:03.666Z,17.40
2019-04-26T13:02:45.503Z,17.50
2019-04-26T13:05:18.877Z,17.80
2019-04-26T13:07:52.103Z,18.00
2019-04-26T13:10:51.877Z,18.20
2019-04-26T13:13:44.009Z,18.20
2019-04-26T13:16:26.261Z,18.20
2019-04-26T13:18:56.097Z,18.30
2019-04-26T13:21:26.427Z,18.20
2019-04-26T13:23:56.144Z,18.20
2019-04-26T13:26:36.402Z,18.30
2019-04-26T13:29:06.225Z,18.30
2019-04-26T13:31:35.556Z,18.40
2019-04-26T13:34:05.400Z,18.40
2019-04-26T13:36:37.918Z,18.30
2019-04-26T13:39:13.382Z,18.20
2019-04-26T13:41:43.350Z,18.10
2019-04-26T13:44:45.812Z,17.90
2019-04-26T13:47:27.146Z,17.80
2019-04-26T13:50:16.640Z,17.70
2019-04-26T13:52:55.138Z,17.70
2019-04-26T13:55:29.530Z,17.60
2019-04-26T13:58:02.278Z,17.60
2019-04-26T14:00:36.025Z,17.50
2019-04-26T14:03:07.908Z,17.50
2019-04-26T14:05:44.349Z,17.70
2019-04-26T14:08:18.886Z,17.50
2019-04-26T14:10:49.744Z,17.60
2019-04-26T14:13:32.162Z,17.60
2019-04-26T14:16:05.627Z,17.70
2019-04-26T14:18:41.830Z,17.60
2019-04-26T14:21:29.254Z,17.60
2019-04-26T14:24:05.352Z,17.50
2019-04-26T14:26:39.978Z,17.40
2019-04-26T14:29:09.686Z,17.40
2019-04-26T14:31:39.249Z,17.40
2019-04-26T14:34:11.780Z,17.40
2019-04-26T14:36:43.989Z,17.50
2019-04-26T14:39:14.894Z,17.70
2019-04-26T14:41:45.504Z,17.90
2019-04-26T14:44:27.279Z,18.20
2019-04-26T14:46:58.368Z,17.90
2019-04-26T14:49:43.151Z,17.80
2019-04-26T14:52:17.202Z,17.90
2019-04-26T14:54:47.587Z,17.80
2019-04-26T14:57:24.492Z,18.00
2019-04-26T14:59:56.631Z,18.20
2019-04-26T15:03:04.986Z,18.20
2019-04-26T15:05:59.031Z,18.10
2019-04-26T15:08:36.514Z,18.00
2019-04-26T15:11:05.952Z,17.90
2019-04-26T15:13:46.873Z,17.80
2019-04-26T15:16:24.417Z,17.80
2019-04-26T15:18:54.282Z,17.70
2019-04-26T15:21:27.486Z,17.70
2019-04-26T15:23:55.386Z,17.80
2019-04-26T15:26:29.950Z,18.00
2019-04-26T15:29:06.041Z,18.10
2019-04-26T15:31:56.926Z,18.10
2019-04-26T15:34:26.636Z,18.10
2019-04-26T15:36:56.683Z,18.00
2019-04-26T15:39:56.854Z,17.90
2019-04-26T15:42:31.169Z,18.00
2019-04-26T15:45:14.757Z,17.90
2019-04-26T15:47:59.255Z,18.10
2019-04-26T15:50:50.113Z,18.20
2019-04-26T15:53:21.472Z,18.20
2019-04-26T15:55:55.083Z,18.00
2019-04-26T15:58:28.569Z,17.90
2019-04-26T16:01:06.673Z,17.80
2019-04-26T16:03:36.790Z,18.00
2019-04-26T16:06:13.969Z,18.20
2019-04-26T16:08:58.609Z,18.30
2019-04-26T16:11:33.672Z,18.50
2019-04-26T16:14:12.295Z,18.50
2019-04-26T16:16:53.380Z,18.40
2019-04-26T16:19:34.674Z,18.40
2019-04-26T16:22:16.106Z,18.20
2019-04-26T16:24:53.151Z,18.20
2019-04-26T16:27:32.383Z,18.20
2019-04-26T16:30:23.188Z,18.30
2019-04-26T16:33:06.158Z,18.20
2019-04-26T16:35:57.384Z,18.10
2019-04-26T16:38:35.841Z,18.10
2019-04-26T16:41:07.613Z,17.90
2019-04-26T16:43:40.512Z,17.80
2019-04-26T16:46:14.627Z,18.00
2019-04-26T16:48:44.621Z,18.00
2019-04-26T16:51:16.575Z,18.10
2019-04-26T16:54:03.746Z,18.00
2019-04-26T16:56:28.138Z,17.90
2019-04-26T16:58:56.875Z,17.70
2019-04-26T17:01:38.193Z,17.70
2019-04-26T17:04:10.978Z,17.70
2019-04-26T17:06:44.254Z,17.70
2019-04-26T17:09:23.642Z,17.60
2019-04-26T17:11:53.096Z,17.70
2019-04-26T17:14:27.901Z,17.80
2019-04-26T17:16:59.098Z,17.70
2019-04-26T17:19:29.739Z,17.70
2019-04-26T17:22:45.447Z,17.60
2019-04-26T17:25:24.377Z,17.50
2019-04-26T17:27:50.970Z,17.60
2019-04-26T17:30:23.268Z,17.70
2019-04-26T17:32:53.591Z,17.70
2019-04-26T17:35:25.438Z,17.70
2019-04-26T17:38:06.102Z,17.70
2019-04-26T17:40:36.659Z,17.70
2019-04-26T17:43:09.620Z,17.60
2019-04-26T17:45:42.491Z,17.50
2019-04-26T17:48:11.595Z,17.40
2019-04-26T17:50:42.355Z,17.30
2019-04-26T17:53:13.473Z,17.10
2019-04-26T17:55:45.815Z,17.10
2019-04-26T17:58:27.451Z,17.00
2019-04-26T18:00:51.718Z,17.00
2019-04-26T18:03:23.635Z,16.90
2019-04-26T18:06:00.890Z,16.90
2019-04-26T18:08:40.688Z,16.80
2019-04-26T18:11:03.989Z,16.60
2019-04-26T18:13:33.565Z,16.50
2019-04-26T18:16:03.835Z,16.40
2019-04-26T18:18:56.114Z,16.40
2019-04-26T18:21:49.700Z,16.30
2019-04-26T18:24:19.694Z,16.30
2019-04-26T18:26:59.037Z,16.30
2019-04-26T18:29:29.240Z,16.30
2019-04-26T18:31:59.147Z,16.30
2019-04-26T18:34:30.520Z,16.30
2019-04-26T18:37:01.889Z,16.30
2019-04-26T18:39:33.689Z,16.30
2019-04-26T18:42:05.847Z,16.30
2019-04-26T18:44:38.599Z,16.20
2019-04-26T18:47:14.666Z,16.10
2019-04-26T18:49:46.031Z,16.00
2019-04-26T18:52:19.387Z,15.90
2019-04-26T18:54:59.709Z,15.80
2019-04-26T18:57:47.359Z,15.80
2019-04-26T19:00:26.437Z,15.70
2019-04-26T19:03:00.289Z,15.60
2019-04-26T19:05:33.821Z,15.50
2019-04-26T19:08:05.114Z,15.50
2019-04-26T19:10:39.443Z,15.50
2019-04-26T19:13:36.589Z,15.40
2019-04-26T19:16:26.758Z,15.30
2019-04-26T19:19:00.936Z,15.20
2019-04-26T19:21:40.513Z,15.20
2019-04-26T19:24:17.263Z,15.10
2019-04-26T19:26:50.050Z,15.10
2019-04-26T19:29:22.530Z,15.00
2019-04-26T19:31:49.456Z,15.00
2019-04-26T19:34:21.780Z,15.00
2019-04-26T19:36:56.350Z,15.00
2019-04-26T19:39:36.309Z,14.90
2019-04-26T19:42:06.232Z,14.90
2019-04-26T19:44:36.240Z,14.90
2019-04-26T19:47:35.450Z,14.90
2019-04-26T19:50:23.554Z,14.80
2019-04-26T19:52:58.328Z,14.80
2019-04-26T19:55:51.624Z,14.80
2019-04-26T19:58:27.547Z,14.70
2019-04-26T20:00:56.765Z,14.60
2019-04-26T20:03:26.088Z,14.60
2019-04-26T20:05:55.749Z,14.50
2019-04-26T20:08:44.458Z,14.40
2019-04-26T20:11:14.328Z,14.40
2019-04-26T20:13:42.589Z,14.30
2019-04-26T20:16:22.618Z,14.20
2019-04-26T20:19:08.113Z,14.20
2019-04-26T20:21:45.432Z,14.20
2019-04-26T20:24:18.205Z,14.10
2019-04-26T20:26:48.538Z,14.20
2019-04-26T20:29:17.289Z,14.10
2019-04-26T20:31:56.899Z,14.20
2019-04-26T20:34:28.205Z,14.20
2019-04-26T20:37:19.869Z,14.10
2019-04-26T20:40:17.013Z,14.10
2019-04-26T20:42:29.528Z,14.00
2019-04-26T20:44:58.962Z,13.90
2019-04-26T20:47:35.410Z,13.80
2019-04-26T20:50:09.587Z,13.70
2019-04-26T20:52:45.540Z,13.60
2019-04-26T20:55:15.021Z,13.60
2019-04-26T20:57:45.412Z,13.50
2019-04-26T21:00:16.940Z,13.50
2019-04-26T21:02:46.448Z,13.50
2019-04-26T21:05:16.783Z,13.50
2019-04-26T21:07:49.982Z,13.60
2019-04-26T21:10:22.052Z,13.60
2019-04-26T21:12:54.595Z,13.60
2019-04-26T21:15:24.200Z,13.60
2019-04-26T21:18:05.640Z,13.60
2019-04-26T21:20:36.603Z,13.60
2019-04-26T21:23:22.298Z,13.50
2019-04-26T21:25:59.010Z,13.50
2019-04-26T21:29:07.387Z,13.40
2019-04-26T21:32:16.302Z,13.30
2019-04-26T21:34:50.788Z,13.10
2019-04-26T21:37:43.129Z,13.00
2019-04-26T21:40:26.134Z,12.90
2019-04-26T21:42:59.334Z,12.90
2019-04-26T21:45:30.728Z,12.70
2019-04-26T21:48:06.882Z,12.60
2019-04-26T21:50:39.020Z,12.60
2019-04-26T21:53:15.887Z,12.50
2019-04-26T21:55:45.358Z,12.50
2019-04-26T21:58:19.789Z,12.40
2019-04-26T22:01:15.801Z,12.30
2019-04-26T22:03:54.341Z,12.30
2019-04-26T22:06:28.773Z,12.20
2019-04-26T22:09:28.607Z,12.20
2019-04-26T22:12:03.647Z,12.10
2019-04-26T22:14:38.845Z,12.10
2019-04-26T22:17:34.785Z,12.10
2019-04-26T22:20:16.485Z,12.00
2019-04-26T22:23:00.197Z,12.00
2019-04-26T22:25:33.250Z,11.90
2019-04-26T22:28:31.198Z,11.90
2019-04-26T22:31:06.975Z,11.80
2019-04-26T22:33:34.212Z,11.80
2019-04-26T22:36:04.965Z,11.80
2019-04-26T22:38:36.478Z,11.70
2019-04-26T22:41:06.589Z,11.70
2019-04-26T22:43:49.646Z,11.70
2019-04-26T22:46:34.057Z,11.60
2019-04-26T22:49:05.562Z,11.60
2019-04-26T22:51:37.216Z,11.50
2019-04-26T22:54:11.237Z,11.50
2019-04-26T22:56:40.668Z,11.40
2019-04-26T22:59:20.549Z,11.40
2019-04-26T23:01:49.937Z,11.30
2019-04-26T23:04:26.604Z,11.30
2019-04-26T23:06:59.637Z,11.30
2019-04-26T23:09:29.196Z,11.30
2019-04-26T23:12:21.902Z,11.30
2019-04-26T23:15:11.120Z,11.20
2019-04-26T23:17:53.500Z,11.20
2019-04-26T23:20:37.706Z,11.20
2019-04-26T23:23:08.746Z,11.10
2019-04-26T23:25:43.476Z,11.10
2019-04-26T23:28:13.899Z,11.10
2019-04-26T23:30:44.285Z,11.00
2019-04-26T23:33:30.919Z,11.00
2019-04-26T23:36:07.349Z,10.90
2019-04-26T23:38:37.629Z,10.90
2019-04-26T23:41:08.392Z,10.80
2019-04-26T23:43:38.010Z,10.80
2019-04-26T23:46:18.875Z,10.70
2019-04-26T23:49:08.470Z,10.70
2019-04-26T23:51:43.171Z,10.70
2019-04-26T23:54:13.624Z,10.60
2019-04-26T23:56:43.859Z,10.60
2019-04-26T23:59:15.019Z,10.50
